createdAt,value
2023-03-26T00:00:12.316Z,9.77
2023-03-26T00:03:16.972Z,9.82
2023-03-26T00:06:22.938Z,9.79
2023-03-26T00:09:25.568Z,9.82
2023-03-26T00:12:28.782Z,9.62
2023-03-26T00:15:31.992Z,9.68
2023-03-26T00:18:35.066Z,9.62
2023-03-26T00:21:37.758Z,9.58
2023-03-26T00:24:40.759Z,9.38
2023-03-26T00:27:45.574Z,9.58
2023-03-26T00:30:49.709Z,9.48
2023-03-26T00:33:56.041Z,9.46
2023-03-26T00:37:02.409Z,9.61
2023-03-26T00:40:07.713Z,9.32
2023-03-26T00:43:19.104Z,9.40
2023-03-26T00:46:22.872Z,9.22
2023-03-26T00:49:30.590Z,9.27
2023-03-26T00:52:33.459Z,9.34
2023-03-26T00:55:36.350Z,9.32
2023-03-26T00:58:39.016Z,9.19
2023-03-26T01:01:42.277Z,9.13
2023-03-26T01:04:47.472Z,9.00
2023-03-26T01:07:51.915Z,9.05
2023-03-26T01:11:02.680Z,9.02
2023-03-26T01:14:07.177Z,9.06
2023-03-26T01:17:09.769Z,8.89
2023-03-26T01:20:14.911Z,9.09
2023-03-26T01:23:23.957Z,9.01
2023-03-26T01:26:39.139Z,9.17
2023-03-26T01:29:54.176Z,9.01
2023-03-26T01:33:14.407Z,9.01
2023-03-26T01:36:21.251Z,8.90
2023-03-26T01:39:49.580Z,8.89
2023-03-26T01:42:58.991Z,8.88
2023-03-26T01:46:05.750Z,8.73
2023-03-26T01:49:13.282Z,8.91
2023-03-26T01:52:21.274Z,8.83
2023-03-26T01:55:30.625Z,8.75
2023-03-26T01:58:52.636Z,8.70
2023-03-26T02:02:02.053Z,8.74
2023-03-26T02:05:13.995Z,8.71
2023-03-26T02:08:35.779Z,8.69
2023-03-26T02:11:40.767Z,8.44
2023-03-26T02:14:44.467Z,8.59
2023-03-26T02:17:47.103Z,8.77
2023-03-26T02:20:53.091Z,8.56
2023-03-26T02:24:03.717Z,8.59
2023-03-26T02:27:12.395Z,8.60
2023-03-26T02:30:19.018Z,8.70
2023-03-26T02:33:22.284Z,8.54
2023-03-26T02:36:27.247Z,8.63
2023-03-26T02:39:30.955Z,8.55
2023-03-26T02:42:33.888Z,8.54
2023-03-26T02:45:36.928Z,8.44
2023-03-26T02:48:41.594Z,8.44
2023-03-26T02:51:44.973Z,8.51
2023-03-26T02:54:47.896Z,8.36
2023-03-26T02:57:51.239Z,8.29
2023-03-26T03:00:57.038Z,8.39
2023-03-26T03:04:01.556Z,8.46
2023-03-26T03:07:05.775Z,8.53
2023-03-26T03:10:21.856Z,8.42
2023-03-26T03:13:27.996Z,8.50
2023-03-26T03:16:31.273Z,8.45
2023-03-26T03:19:34.442Z,8.40
2023-03-26T03:22:38.297Z,8.35
2023-03-26T03:25:41.251Z,8.34
2023-03-26T03:28:45.284Z,8.25
2023-03-26T03:31:49.829Z,8.23
2023-03-26T03:34:53.231Z,8.14
2023-03-26T03:37:59.711Z,8.08
2023-03-26T03:41:04.351Z,8.01
2023-03-26T03:44:07.991Z,7.95
2023-03-26T03:47:13.736Z,8.01
2023-03-26T03:50:16.567Z,7.90
2023-03-26T03:53:26.262Z,7.91
2023-03-26T03:56:29.208Z,7.80
2023-03-26T03:59:33.073Z,7.81
2023-03-26T04:02:38.289Z,7.72
2023-03-26T04:05:41.333Z,7.81
2023-03-26T04:08:43.891Z,7.80
2023-03-26T04:11:46.834Z,7.77
2023-03-26T04:14:51.879Z,7.68
2023-03-26T04:17:54.841Z,7.76
2023-03-26T04:21:02.460Z,7.91
2023-03-26T04:24:07.238Z,7.72
2023-03-26T04:27:17.768Z,7.62
2023-03-26T04:30:21.230Z,7.57
2023-03-26T04:33:25.056Z,7.57
2023-03-26T04:36:29.671Z,7.39
2023-03-26T04:39:34.280Z,7.37
2023-03-26T04:42:46.358Z,7.28
2023-03-26T04:45:50.151Z,7.37
2023-03-26T04:48:56.126Z,7.24
2023-03-26T04:51:59.254Z,7.27
2023-03-26T04:55:37.216Z,7.19
2023-03-26T04:58:41.235Z,7.12
2023-03-26T05:01:46.102Z,7.06
2023-03-26T05:04:50.052Z,7.06
2023-03-26T05:07:53.174Z,7.01
2023-03-26T05:10:56.887Z,7.01
2023-03-26T05:14:02.364Z,7.01
2023-03-26T05:17:10.993Z,7.06
2023-03-26T05:20:20.945Z,7.10
2023-03-26T05:23:23.789Z,7.18
2023-03-26T05:26:27.493Z,7.25
2023-03-26T05:29:30.164Z,7.41
2023-03-26T05:32:34.684Z,7.51
2023-03-26T05:35:37.528Z,7.70
2023-03-26T05:38:47.329Z,7.76
2023-03-26T05:41:52.885Z,7.96
2023-03-26T05:44:56.391Z,8.03
2023-03-26T05:47:59.445Z,8.07
2023-03-26T05:51:02.727Z,8.16
2023-03-26T05:54:05.957Z,8.22
2023-03-26T05:57:12.484Z,8.27
2023-03-26T06:00:21.867Z,8.37
2023-03-26T06:03:27.159Z,8.41
2023-03-26T06:06:32.297Z,8.50
2023-03-26T06:09:40.912Z,8.64
2023-03-26T06:12:43.549Z,8.74
2023-03-26T06:15:46.831Z,8.92
2023-03-26T06:18:56.348Z,9.04
2023-03-26T06:22:01.779Z,9.28
2023-03-26T06:25:05.260Z,9.63
2023-03-26T06:28:10.846Z,9.73
2023-03-26T06:31:14.343Z,10.04
2023-03-26T06:34:17.907Z,10.01
2023-03-26T06:37:20.552Z,10.25
2023-03-26T06:40:24.984Z,10.52
2023-03-26T06:43:28.176Z,10.68
2023-03-26T06:46:31.537Z,10.90
2023-03-26T06:49:38.184Z,11.00
2023-03-26T06:52:41.851Z,11.11
2023-03-26T06:55:44.636Z,11.25
2023-03-26T06:58:48.043Z,11.33
2023-03-26T07:01:53.549Z,11.45
2023-03-26T07:05:13.861Z,11.43
2023-03-26T07:08:26.583Z,11.63
2023-03-26T07:11:33.614Z,11.51
2023-03-26T07:14:39.832Z,11.65
2023-03-26T07:17:42.972Z,11.71
2023-03-26T07:20:46.534Z,11.78
2023-03-26T07:23:49.890Z,11.81
2023-03-26T07:27:07.204Z,12.00
2023-03-26T07:30:20.480Z,12.11
2023-03-26T07:33:37.789Z,12.34
2023-03-26T07:36:49.382Z,12.65
2023-03-26T07:40:08.088Z,12.76
2023-03-26T07:43:23.232Z,12.95
2023-03-26T07:46:36.995Z,13.07
2023-03-26T07:49:43.391Z,13.12
2023-03-26T07:52:49.740Z,13.31
2023-03-26T07:56:08.192Z,13.42
2023-03-26T07:59:29.736Z,13.39
2023-03-26T08:02:45.044Z,13.59
2023-03-26T08:06:00.660Z,13.65
2023-03-26T08:09:42.794Z,13.91
2023-03-26T08:13:04.529Z,13.88
2023-03-26T08:16:24.106Z,13.94
2023-03-26T08:19:51.238Z,13.99
2023-03-26T08:23:17.041Z,14.20
2023-03-26T08:26:45.448Z,14.26
2023-03-26T08:30:02.252Z,14.42
2023-03-26T08:33:11.318Z,14.70
2023-03-26T08:36:13.848Z,14.94
2023-03-26T08:39:18.224Z,14.73
2023-03-26T08:43:07.288Z,14.59
2023-03-26T08:46:34.742Z,14.35
2023-03-26T08:50:12.770Z,14.32
2023-03-26T08:53:34.883Z,14.44
2023-03-26T08:56:59.307Z,14.30
2023-03-26T09:00:13.624Z,14.29
2023-03-26T09:03:19.740Z,14.28
2023-03-26T09:06:39.372Z,14.43
2023-03-26T09:09:53.771Z,14.61
2023-03-26T09:13:14.435Z,14.46
2023-03-26T09:16:35.604Z,14.57
2023-03-26T09:19:54.022Z,14.72
2023-03-26T09:23:14.979Z,14.83
2023-03-26T09:26:24.898Z,15.08
2023-03-26T09:29:46.465Z,14.96
2023-03-26T09:33:09.850Z,14.78
2023-03-26T09:36:18.601Z,15.06
2023-03-26T09:39:41.650Z,15.18
2023-03-26T09:42:54.675Z,15.19
2023-03-26T09:46:10.091Z,15.25
2023-03-26T09:49:51.733Z,15.18
2023-03-26T09:53:16.415Z,15.32
2023-03-26T09:56:39.895Z,15.44
2023-03-26T09:59:57.784Z,15.72
2023-03-26T10:03:26.784Z,15.97
2023-03-26T10:06:59.939Z,15.93
2023-03-26T10:10:09.217Z,16.06
2023-03-26T10:13:34.043Z,16.11
2023-03-26T10:16:51.385Z,16.25
2023-03-26T10:20:19.841Z,16.57
2023-03-26T10:24:01.206Z,16.47
2023-03-26T10:27:15.385Z,16.45
2023-03-26T10:30:27.304Z,16.52
2023-03-26T10:33:57.375Z,16.36
2023-03-26T10:37:11.955Z,16.27
2023-03-26T10:40:37.051Z,16.27
2023-03-26T10:44:07.399Z,16.10
2023-03-26T10:47:31.638Z,15.88
2023-03-26T10:51:18.635Z,15.67
2023-03-26T10:54:30.909Z,15.46
2023-03-26T10:57:38.184Z,15.05
2023-03-26T11:00:53.756Z,15.16
2023-03-26T11:04:05.800Z,15.23
2023-03-26T11:07:20.837Z,15.56
2023-03-26T11:10:59.246Z,15.77
2023-03-26T11:14:27.829Z,15.81
2023-03-26T11:18:13.759Z,15.96
2023-03-26T11:21:24.982Z,16.14
2023-03-26T11:24:52.101Z,16.30
2023-03-26T11:27:58.544Z,16.45
2023-03-26T11:31:41.783Z,16.15
2023-03-26T11:35:05.509Z,15.99
2023-03-26T11:42:11.150Z,16.64
2023-03-26T11:45:18.221Z,16.60
2023-03-26T11:48:40.617Z,16.48
2023-03-26T11:51:44.250Z,16.42
2023-03-26T11:54:50.626Z,16.54
2023-03-26T11:57:57.410Z,16.56
2023-03-26T12:01:04.534Z,16.67
2023-03-26T12:04:13.675Z,16.90
2023-03-26T12:07:34.700Z,17.21
2023-03-26T12:10:39.583Z,17.40
2023-03-26T12:13:52.222Z,17.54
2023-03-26T12:17:11.594Z,17.73
2023-03-26T12:20:26.768Z,17.88
2023-03-26T12:23:44.911Z,17.81
2023-03-26T12:26:50.358Z,17.73
2023-03-26T12:30:00.284Z,17.67
2023-03-26T12:33:28.290Z,17.60
2023-03-26T12:36:33.385Z,17.58
2023-03-26T12:40:08.609Z,17.67
2023-03-26T12:44:51.112Z,17.69
2023-03-26T12:47:57.494Z,17.68
2023-03-26T12:50:15.071Z,17.92
2023-03-26T12:53:29.156Z,17.82
2023-03-26T12:57:12.464Z,17.85
2023-03-26T13:00:39.994Z,17.94
2023-03-26T13:04:01.713Z,17.75
2023-03-26T13:07:27.307Z,17.62
2023-03-26T13:10:56.584Z,17.88
2023-03-26T13:14:27.754Z,17.89
2023-03-26T13:17:37.256Z,17.68
2023-03-26T13:20:47.684Z,17.70
2023-03-26T13:24:09.318Z,17.79
2023-03-26T13:27:17.877Z,17.72
2023-03-26T13:30:39.514Z,17.64
2023-03-26T13:34:01.909Z,17.39
2023-03-26T13:37:42.407Z,17.71
2023-03-26T13:41:12.435Z,18.02
2023-03-26T13:44:23.237Z,18.11
2023-03-26T13:47:28.676Z,17.98
2023-03-26T13:50:39.116Z,17.82
2023-03-26T13:53:47.743Z,18.00
2023-03-26T13:56:57.551Z,17.97
2023-03-26T14:00:21.543Z,18.03
2023-03-26T14:03:30.168Z,18.18
2023-03-26T14:06:34.005Z,18.21
2023-03-26T14:09:37.059Z,18.19
2023-03-26T14:12:52.703Z,18.07
2023-03-26T14:16:27.349Z,18.05
2023-03-26T14:19:51.123Z,18.10
2023-03-26T14:22:57.402Z,18.27
2023-03-26T14:26:18.901Z,18.30
2023-03-26T14:29:24.318Z,18.47
2023-03-26T14:32:33.419Z,18.32
2023-03-26T14:35:39.270Z,18.19
2023-03-26T14:39:05.723Z,18.26
2023-03-26T14:42:19.309Z,18.43
2023-03-26T14:45:34.877Z,18.15
2023-03-26T14:49:03.005Z,18.34
2023-03-26T14:52:06.026Z,18.32
2023-03-26T14:55:17.057Z,18.53
2023-03-26T14:58:57.931Z,18.54
2023-03-26T15:02:22.292Z,18.54
2023-03-26T15:05:46.572Z,18.49
2023-03-26T15:09:26.634Z,18.45
2023-03-26T15:12:48.296Z,18.55
2023-03-26T15:16:03.407Z,18.64
2023-03-26T15:19:36.699Z,18.58
2023-03-26T15:23:16.889Z,18.54
2023-03-26T15:26:38.266Z,18.54
2023-03-26T15:30:03.065Z,18.34
2023-03-26T15:33:51.558Z,18.28
2023-03-26T15:37:18.748Z,18.25
2023-03-26T15:40:49.640Z,18.11
2023-03-26T15:44:23.076Z,17.99
2023-03-26T15:47:41.750Z,17.83
2023-03-26T15:50:59.540Z,17.84
2023-03-26T15:54:22.692Z,17.62
2023-03-26T15:57:27.517Z,17.55
2023-03-26T16:00:35.409Z,17.50
2023-03-26T16:03:55.674Z,17.34
2023-03-26T16:07:16.944Z,17.49
2023-03-26T16:10:34.045Z,17.37
2023-03-26T16:13:50.712Z,17.23
2023-03-26T16:16:55.173Z,17.02
2023-03-26T16:20:23.018Z,17.01
2023-03-26T16:23:30.610Z,16.82
2023-03-26T16:27:00.825Z,16.77
2023-03-26T16:30:30.682Z,16.67
2023-03-26T16:33:39.060Z,16.56
2023-03-26T16:36:43.876Z,16.42
2023-03-26T16:39:47.336Z,16.26
2023-03-26T16:42:50.369Z,16.26
2023-03-26T16:46:07.938Z,16.19
2023-03-26T16:49:42.626Z,16.11
2023-03-26T16:52:52.054Z,15.96
2023-03-26T16:56:21.532Z,15.83
2023-03-26T17:00:05.824Z,15.63
2023-03-26T17:03:38.962Z,15.63
2023-03-26T17:07:01.838Z,15.47
2023-03-26T17:10:19.510Z,15.42
2023-03-26T17:13:28.318Z,15.39
2023-03-26T17:16:35.980Z,15.20
2023-03-26T17:19:49.176Z,15.09
2023-03-26T17:23:08.166Z,15.04
2023-03-26T17:26:31.596Z,14.92
2023-03-26T17:29:51.167Z,14.75
2023-03-26T17:33:27.232Z,14.64
2023-03-26T17:36:39.688Z,14.57
2023-03-26T17:39:43.511Z,14.49
2023-03-26T17:43:11.538Z,14.51
2023-03-26T17:46:21.049Z,14.37
2023-03-26T17:49:31.281Z,14.40
2023-03-26T17:52:41.956Z,14.38
2023-03-26T17:55:45.849Z,14.23
2023-03-26T17:58:58.711Z,14.15
2023-03-26T18:02:26.455Z,14.04
2023-03-26T18:05:30.929Z,13.98
2023-03-26T18:08:40.796Z,13.96
2023-03-26T18:12:02.364Z,14.00
2023-03-26T18:15:29.813Z,13.83
2023-03-26T18:18:43.573Z,13.77
2023-03-26T18:21:50.310Z,13.71
2023-03-26T18:24:58.895Z,13.61
2023-03-26T18:28:02.462Z,13.80
2023-03-26T18:31:10.079Z,13.64
2023-03-26T18:34:18.719Z,13.63
2023-03-26T18:37:24.799Z,13.60
2023-03-26T18:40:33.336Z,13.60
2023-03-26T18:43:43.554Z,13.59
2023-03-26T18:46:48.253Z,13.55
2023-03-26T18:49:56.908Z,13.52
2023-03-26T18:53:00.770Z,13.59
2023-03-26T18:56:19.543Z,13.58
2023-03-26T18:59:41.009Z,13.56
2023-03-26T19:02:49.004Z,13.56
2023-03-26T19:05:56.576Z,13.56
2023-03-26T19:09:16.338Z,13.47
2023-03-26T19:12:33.203Z,13.53
2023-03-26T19:15:36.704Z,13.58
2023-03-26T19:18:40.919Z,13.52
2023-03-26T19:21:49.486Z,13.41
2023-03-26T19:24:57.681Z,13.46
2023-03-26T19:28:01.223Z,13.49
2023-03-26T19:31:15.115Z,13.31
2023-03-26T19:34:30.106Z,13.39
2023-03-26T19:37:33.184Z,13.32
2023-03-26T19:40:36.807Z,13.30
2023-03-26T19:43:42.510Z,13.30
2023-03-26T19:46:53.906Z,13.29
2023-03-26T19:50:02.490Z,13.37
2023-03-26T19:53:16.589Z,13.25
2023-03-26T19:56:21.922Z,13.32
2023-03-26T19:59:25.534Z,13.34
2023-03-26T20:02:28.598Z,13.29
2023-03-26T20:05:33.976Z,13.32
2023-03-26T20:08:37.088Z,13.27
2023-03-26T20:11:40.909Z,13.26
2023-03-26T20:14:45.294Z,13.23
2023-03-26T20:17:52.410Z,13.47
2023-03-26T20:20:57.596Z,13.39
2023-03-26T20:24:01.692Z,13.40
2023-03-26T20:27:04.532Z,13.41
2023-03-26T20:30:09.201Z,13.36
2023-03-26T20:33:22.461Z,13.32
2023-03-26T20:36:33.110Z,13.19
2023-03-26T20:39:37.803Z,13.18
2023-03-26T20:42:41.641Z,13.16
2023-03-26T20:45:45.688Z,13.18
2023-03-26T20:48:49.443Z,13.06
2023-03-26T20:51:52.716Z,13.06
2023-03-26T20:54:56.088Z,13.06
2023-03-26T20:57:58.727Z,13.03
2023-03-26T21:01:02.241Z,12.95
2023-03-26T21:04:05.884Z,12.87
2023-03-26T21:07:17.780Z,12.92
2023-03-26T21:10:23.004Z,12.84
2023-03-26T21:13:46.087Z,12.99
2023-03-26T21:16:49.018Z,12.84
2023-03-26T21:19:52.214Z,12.81
2023-03-26T21:23:13.208Z,12.70
2023-03-26T21:26:42.795Z,12.72
2023-03-26T21:29:45.683Z,12.65
2023-03-26T21:32:49.032Z,12.62
2023-03-26T21:35:51.950Z,12.66
2023-03-26T21:38:56.102Z,12.62
2023-03-26T21:42:04.951Z,12.63
2023-03-26T21:45:09.394Z,12.63
2023-03-26T21:48:12.701Z,12.39
2023-03-26T21:51:20.876Z,12.49
2023-03-26T21:54:24.713Z,12.48
2023-03-26T21:57:55.598Z,12.27
2023-03-26T22:01:19.905Z,12.30
2023-03-26T22:04:32.255Z,12.16
2023-03-26T22:07:42.245Z,12.01
2023-03-26T22:10:45.764Z,11.91
2023-03-26T22:13:48.759Z,11.91
2023-03-26T22:16:51.682Z,11.83
2023-03-26T22:19:56.097Z,11.70
2023-03-26T22:23:00.554Z,11.77
2023-03-26T22:26:04.669Z,11.87
2023-03-26T22:29:08.316Z,11.75
2023-03-26T22:32:11.194Z,11.72
2023-03-26T22:35:14.548Z,11.74
2023-03-26T22:38:17.200Z,11.76
2023-03-26T22:41:21.761Z,11.69
2023-03-26T22:44:24.363Z,11.65
2023-03-26T22:47:27.268Z,11.69
2023-03-26T22:50:30.080Z,11.67
2023-03-26T22:53:33.075Z,11.65
2023-03-26T22:56:36.383Z,11.62
2023-03-26T22:59:39.256Z,11.57
2023-03-26T23:02:44.946Z,11.51
2023-03-26T23:05:58.213Z,11.47
2023-03-26T23:09:01.080Z,11.47
2023-03-26T23:12:04.430Z,11.41
2023-03-26T23:15:08.077Z,11.46
2023-03-26T23:18:13.995Z,11.49
2023-03-26T23:21:19.344Z,11.52
2023-03-26T23:24:22.553Z,11.54
2023-03-26T23:27:25.402Z,11.55
2023-03-26T23:30:29.794Z,11.55
2023-03-26T23:33:35.382Z,11.53
2023-03-26T23:36:38.358Z,11.46
2023-03-26T23:39:41.097Z,11.50
2023-03-26T23:42:44.137Z,11.49
2023-03-26T23:45:47.929Z,11.50
2023-03-26T23:48:51.655Z,11.45
2023-03-26T23:51:54.565Z,11.47
2023-03-26T23:54:59.811Z,11.46
2023-03-26T23:58:03.357Z,11.43
